Navaho — 9HNR6 — position and weather

sailwx.info

Track history (hours):
 
Tides and Currents Weather Stations Pressure Air Temp Water Temp Dewpoint Dewpoint Depression Visibility Wind Speed Wind Dir Waves Ship Positions

Navaho

Last reported at 2018-Jun-16 00:12 UTC. Time now 2018-Jun-19 01:18 UTC.
Position N 45°08' E 036°29'.

Length 140 m; draft 3.8 m.

Type: Cargo ship. MMSI: 248681000.

Date/timePositionNaut miles runAvg speedWind from/ knotsBaromVisibWave heightAir tempDewpointWater temp
2018-Jun-16 00:12N 45°08' E 036°29'3 7.9
2018-Jun-15 23:48N 45°11' E 036°28'2 7.8
2018-Jun-15 23:30N 45°14' E 036°28'4 7.1
2018-Jun-15 22:57N 45°18' E 036°29'3 6.8
2018-Jun-15 22:30N 45°19' E 036°33'4 7.9
2018-Jun-15 22:00N 45°21' E 036°38'3 6.4
2018-Jun-15 21:30N 45°23' E 036°40'3 6.8
2018-Jun-15 21:00N 45°27' E 036°38'2 0.5
2018-Jun-15 16:12N 45°28' E 036°37'0 0.0
2018-Jun-15 04:21N 45°28' E 036°37'0 0.2
2018-Jun-15 03:59N 45°28' E 036°36'2 4.3
2018-Jun-15 03:30N 45°30' E 036°39'  
Track history (hours):
 
Tides and Currents Weather Stations Pressure Air Temp Water Temp Dewpoint Dewpoint Depression Visibility Wind Speed Wind Dir Waves Ship Positions

Navaho

Last reported at 2018-Jun-16 00:12 UTC. Time now 2018-Jun-19 01:18 UTC.
Position N 45°08' E 036°29'.

Length 140 m; draft 3.8 m.

Type: Cargo ship. MMSI: 248681000.

Date/timePositionNaut miles runAvg speedWind from/ knotsBaromVisibWave heightAir tempDewpointWater temp
2018-Jun-16 00:12N 45°08' E 036°29'3 7.9
2018-Jun-15 23:48N 45°11' E 036°28'2 7.8
2018-Jun-15 23:30N 45°14' E 036°28'4 7.1
2018-Jun-15 22:57N 45°18' E 036°29'3 6.8
2018-Jun-15 22:30N 45°19' E 036°33'4 7.9
2018-Jun-15 22:00N 45°21' E 036°38'3 6.4
2018-Jun-15 21:30N 45°23' E 036°40'3 6.8
2018-Jun-15 21:00N 45°27' E 036°38'2 0.5
2018-Jun-15 16:12N 45°28' E 036°37'0 0.0
2018-Jun-15 04:21N 45°28' E 036°37'0 0.2
2018-Jun-15 03:59N 45°28' E 036°36'2 4.3
2018-Jun-15 03:30N 45°30' E 036°39'  

Dump ship's entire track history